I23 weather

Fayette County Airport
Washington Court House, Ohio, United States

Public forecast

Using degrees Fahrenheit for public forecast. Weather courtesy of forecast.io.

METAR (pilot weather report)

Closest report is Wilmington Airpark, 19.2 nm (35.6 km) WSW. Retrieved 2019/05/22 13:54 UTC (25 minutes ago):

KILN 221354Z AUTO 18012G20KT 10SM CLR 22/14 A3000 RMK AO2 SLP156 T02220144

TAF (pilot weather forecast)

Closest forecast is Wilmington Airpark, 19.2 nm (35.6 km) WSW. Retrieved 2019/05/22 12:34 UTC (2 hours ago):

TAF KILN 221132Z 2212/2312 12007KT P6SM SCT060 BKN250 FM221400 18011KT P6SM BKN080 FM221700 20014G22KT P6SM SCT045 BKN090 FM222300 22011KT P6SM BKN045 FM230200 20006KT P6SM SCT050